Weather History for Abilene Dyess, TX

Change the Weather History Date:

Monday, October 14, 2013

  Actual Average Record
Temperature  
Mean Temperature 70 °F -  
Max Temperature 75 °F 75 °F 91 °F (1999)
Min Temperature 66 °F 55 °F 40 °F (2010)
Cooling Degree Days 6    
Growing Degree Days 20 (Base 50)    
Moisture  
Dew Point 67 °F    
Average Humidity 89    
Maximum Humidity 100    
Minimum Humidity 77    
Precipitation  
Precipitation 0.26 in - - ()
Sea Level Pressure  
Sea Level Pressure 29.97 in    
Wind  
Wind Speed 10 mph (SSE)    
Max Wind Speed 17 mph    
Max Gust Speed 22 mph    
Visibility 10 miles    
Events Rain    
Averages and records for this station are not official NWS values.
T = Trace of Precipitation, MM = Missing Value Source: NWS Daily Summary

Daily Weather History Graph

Daily Weather History Graph

Search for Another Location

Airport:

Trip Planner

Search our weather history database for the weather conditions in past years. The results will help you decide how hot, cold, wet, or windy it might be!

Date:

Astronomy

Oct. 14, 2013 Rise Set
Actual Time 7:42 AM CDT 7:07 PM CDT
Civil Twilight 7:17 AM CDT 7:32 PM CDT
Nautical Twilight 6:49 AM CDT 8:00 PM CDT
Astronomical Twilight 6:20 AM CDT 8:29 PM CDT
Moon 4:25 PM CDT (10/14) 3:15 AM CDT (10/14)
Length of Visible Light 12h 14m
Length of Day
11h 24m
Waxing Gibbous, 79% of the Moon is Illuminated
Oct 14
Waxing Gibbous
Oct 18
Full
Oct 26
Last Quarter
Nov 3
New
Nov 9
First Quarter

Hourly Weather History & Observations

Time (CDT) Temp. Dew Point Humidity Pressure Visibility Wind Dir Wind Speed Gust Speed Precip Events Conditions
12:39 AM 66.2 °F 66.2 °F 100% 30.15 in 10.0 mi SE 4.6 mph - N/A   Overcast
12:58 AM 66.9 °F 65.5 °F 95% 30.04 in 9.0 mi ESE 4.6 mph - 0.01 in   Overcast
1:52 AM 66.2 °F 66.2 °F 100% 30.12 in 10.0 mi SE 8.1 mph - N/A Rain Light Rain
1:58 AM 66.7 °F 65.8 °F 97% 30.03 in 7.0 mi SSE 8.1 mph - 0.01 in Rain Light Rain
2:27 AM 66.2 °F 66.2 °F 100% 30.11 in 9.0 mi SE 8.1 mph - N/A   Overcast
2:58 AM 66.7 °F 66.2 °F 98% 29.99 in 10.0 mi SE 9.2 mph - 0.05 in   Overcast
3:53 AM 66.2 °F 66.2 °F 100% 30.06 in 10.0 mi SE 13.8 mph - N/A   Overcast
3:58 AM 66.7 °F 66.2 °F 98% 29.96 in 10.0 mi SE 11.5 mph - N/A   Overcast
4:28 AM 66.2 °F 66.2 °F 100% 30.05 in 10.0 mi SE 13.8 mph - N/A   Overcast
4:33 AM 66.2 °F 66.2 °F 100% 30.05 in 10.0 mi SE 12.7 mph - N/A   Overcast
4:53 AM 66.2 °F 66.2 °F 100% 30.05 in 10.0 mi SE 11.5 mph - N/A   Overcast
4:58 AM 66.9 °F 66.0 °F 97% 29.96 in 10.0 mi SE 11.5 mph - N/A   Overcast
5:08 AM 66.2 °F 66.2 °F 100% 30.05 in 10.0 mi SE 10.4 mph - N/A   Overcast
5:33 AM 66.2 °F 66.2 °F 100% 30.04 in 10.0 mi SSE 10.4 mph - N/A   Overcast
5:34 AM 66.2 °F 66.2 °F 100% 30.04 in 10.0 mi SE 10.4 mph - N/A Rain Light Rain
5:39 AM 66.2 °F 66.2 °F 100% 30.04 in 10.0 mi SE 11.5 mph - N/A Rain Light Rain
5:58 AM 67.1 °F 66.6 °F 98% 29.94 in 10.0 mi SSE 10.4 mph - 0.01 in Rain Light Rain
6:03 AM 68.0 °F 66.2 °F 94% 30.04 in 10.0 mi SSE 10.4 mph - N/A Rain Light Rain
6:18 AM 68.0 °F 66.2 °F 94% 30.04 in 10.0 mi SSE 9.2 mph - N/A Rain Light Rain
6:58 AM 67.5 °F 66.9 °F 98% 29.96 in 10.0 mi SSE 10.4 mph - 0.02 in Rain Light Rain
7:03 AM 68.0 °F 66.2 °F 94% 30.05 in 10.0 mi SSE 10.4 mph - N/A Rain Light Rain
7:38 AM 68.0 °F 68.0 °F 100% 30.05 in 9.0 mi SSE 8.1 mph - N/A Rain Light Rain
7:43 AM 68.0 °F 68.0 °F 100% 30.05 in 8.0 mi South 8.1 mph - N/A Rain Light Rain
7:58 AM 67.8 °F 67.3 °F 98% 29.96 in 4.0 mi South 11.5 mph - 0.08 in Rain Light Rain
8:03 AM 68.0 °F 68.0 °F 100% 30.05 in 4.0 mi South 11.5 mph - N/A Rain Rain
8:58 AM 68.2 °F 67.6 °F 98% 29.96 in 10.0 mi South 9.2 mph - 0.07 in Rain Light Rain
9:26 AM 68.0 °F 68.0 °F 100% 30.05 in 10.0 mi SSE 9.2 mph - N/A   Mostly Cloudy
9:58 AM 69.3 °F 68.4 °F 97% 29.94 in 10.0 mi SSE 11.5 mph - 0.01 in   Mostly Cloudy
10:03 AM 69.8 °F 68.0 °F 94% 30.04 in 10.0 mi SSE 11.5 mph - N/A   Mostly Cloudy
10:08 AM 69.8 °F 68.0 °F 94% 30.03 in 10.0 mi SSE 13.8 mph - N/A   Mostly Cloudy
10:18 AM 71.6 °F 69.8 °F 94% 30.04 in 10.0 mi SSE 12.7 mph - N/A   Overcast
10:28 AM 71.6 °F 68.0 °F 88% 30.04 in 10.0 mi SSE 10.4 mph - N/A   Overcast
10:43 AM 71.6 °F 68.0 °F 88% 30.03 in 10.0 mi SSE 17.3 mph - N/A   Overcast
10:58 AM 72.5 °F 68.5 °F 87% 29.94 in 10.0 mi South 15.0 mph - N/A   Overcast
11:43 AM 71.6 °F 68.0 °F 88% 30.02 in 10.0 mi South 10.4 mph - N/A   Overcast
11:58 AM 71.8 °F 67.8 °F 87% 29.92 in 10.0 mi South 12.7 mph - N/A   Overcast
12:58 PM 72.7 °F 68.2 °F 86% 29.91 in 10.0 mi South 16.1 mph - N/A   Overcast
1:08 PM 73.4 °F 68.0 °F 83% 29.99 in 10.0 mi South 13.8 mph - N/A   Overcast
1:13 PM 73.4 °F 68.0 °F 83% 29.99 in 10.0 mi South 15.0 mph - N/A   Overcast
1:23 PM 73.4 °F 68.0 °F 83% 29.98 in 10.0 mi South 11.5 mph - N/A   Overcast
1:28 PM 73.4 °F 68.0 °F 83% 29.98 in 10.0 mi South 15.0 mph - N/A   Overcast
1:38 PM 73.4 °F 68.0 °F 83% 29.97 in 10.0 mi South 12.7 mph 21.9 mph N/A   Overcast
1:58 PM 74.3 °F 68.4 °F 82% 29.85 in 10.0 mi South 13.8 mph - N/A   Overcast
2:28 PM 73.4 °F 68.0 °F 83% 29.94 in 10.0 mi South 16.1 mph - N/A   Overcast
2:53 PM 75.2 °F 68.0 °F 78% 29.92 in 10.0 mi South 17.3 mph 21.9 mph N/A   Overcast
2:58 PM 75.2 °F 68.5 °F 80% 29.82 in 10.0 mi SSW 15.0 mph 21.9 mph N/A   Overcast
3:03 PM 75.2 °F 68.0 °F 78% 29.92 in 10.0 mi South 12.7 mph 19.6 mph N/A   Overcast
3:33 PM 75.2 °F 68.0 °F 78% 29.91 in 10.0 mi South 12.7 mph - N/A   Overcast
3:43 PM 75.2 °F 68.0 °F 78% 29.91 in 10.0 mi South 13.8 mph - N/A   Overcast
3:48 PM 75.2 °F 68.0 °F 78% 29.91 in 10.0 mi SSW 11.5 mph - N/A   Overcast
3:53 PM 75.2 °F 68.0 °F 78% 29.92 in 10.0 mi SSW 12.7 mph - N/A   Overcast
3:58 PM 75.4 °F 68.4 °F 79% 29.82 in 10.0 mi SSW 11.5 mph - N/A   Overcast
4:03 PM 75.2 °F 68.0 °F 78% 29.91 in 10.0 mi South 11.5 mph - N/A   Overcast
4:13 PM 75.2 °F 68.0 °F 78% 29.91 in 10.0 mi SSW 10.4 mph - N/A   Overcast
4:48 PM 75.2 °F 68.0 °F 78% 29.91 in 10.0 mi South 8.1 mph - N/A   Overcast
4:58 PM 75.7 °F 68.2 °F 77% 29.81 in 10.0 mi SSW 9.2 mph - N/A   Overcast
5:38 PM 75.2 °F 68.0 °F 78% 29.90 in 10.0 mi South 10.4 mph - N/A   Mostly Cloudy
5:58 PM 75.0 °F 68.5 °F 80% 29.81 in 10.0 mi South 11.5 mph - N/A   Scattered Clouds
6:58 PM 74.3 °F 68.2 °F 81% 29.81 in 10.0 mi South 9.2 mph - N/A   Mostly Cloudy
7:58 PM 73.2 °F 68.5 °F 85% 29.81 in 10.0 mi South 11.5 mph - N/A   Overcast
8:58 PM 73.6 °F 67.8 °F 82% 29.83 in 10.0 mi South 15.0 mph - N/A   Clear
9:58 PM 73.4 °F 67.6 °F 82% 29.83 in 10.0 mi South 11.5 mph - N/A   Clear
10:58 PM 74.1 °F 67.1 °F 79% 29.83 in 10.0 mi South 16.1 mph - N/A   Partly Cloudy
11:58 PM 73.4 °F 66.9 °F 80% 29.84 in 10.0 mi South 11.5 mph - N/A   Overcast